TimeCST,TemperatureF,Dew PointF,Humidity,Sea Level PressureIn,VisibilityMPH,Wind Direction,Wind SpeedMPH,Gust SpeedMPH,PrecipitationIn,Events,Conditions,WindDirDegrees,DateUTC
12:12 AM,39.2,35.6,87,29.94,7.0,SSW,8.1,-,N/A,,Overcast,200,2012-11-06 06:12:00
12:31 AM,39.2,35.6,87,29.94,7.0,SSW,6.9,-,N/A,,Overcast,200,2012-11-06 06:31:00
12:51 AM,39.2,35.6,87,29.92,7.0,South,9.2,-,N/A,,Overcast,190,2012-11-06 06:51:00
1:12 AM,39.2,35.6,87,29.91,5.0,SSW,11.5,-,N/A,,Overcast,200,2012-11-06 07:12:00
1:31 AM,39.2,37.4,93,29.91,4.0,South,8.1,-,N/A,Rain,Rain,190,2012-11-06 07:31:00
1:51 AM,37.4,37.4,100,29.90,4.0,SSW,9.2,-,0.01,Rain,Light Rain,200,2012-11-06 07:51:00
2:12 AM,37.4,37.4,100,29.89,5.0,SSW,9.2,16.1,0.01,Rain,Rain,210,2012-11-06 08:12:00
2:31 AM,37.4,37.4,100,29.88,7.0,SSW,9.2,-,0.02,Rain,Light Rain,200,2012-11-06 08:31:00
2:51 AM,37.4,37.4,100,29.87,5.0,SSW,8.1,18.4,0.03,Rain,Light Rain,200,2012-11-06 08:51:00
3:12 AM,37.4,35.6,93,29.85,7.0,South,10.4,-,0.03,Rain,Rain,190,2012-11-06 09:12:00
3:31 AM,37.4,37.4,100,29.84,7.0,South,11.5,-,0.04,Rain,Rain,190,2012-11-06 09:31:00
3:51 AM,37.4,37.4,100,29.82,5.0,South,11.5,-,0.05,Rain,Light Rain,190,2012-11-06 09:51:00
4:12 AM,37.4,37.4,100,29.81,5.0,South,12.7,18.4,N/A,Rain,Rain,190,2012-11-06 10:12:00
4:31 AM,37.4,37.4,100,29.80,5.0,SSW,10.4,18.4,N/A,,Overcast,200,2012-11-06 10:31:00
4:51 AM,39.2,37.4,93,29.79,5.0,SSW,8.1,17.3,N/A,Rain,Rain,200,2012-11-06 10:51:00
5:11 AM,39.2,37.4,93,29.79,5.0,SSW,6.9,-,0.01,Rain,Rain,200,2012-11-06 11:11:00
5:31 AM,39.2,37.4,93,29.79,7.0,SW,6.9,-,0.02,Rain,Light Rain,220,2012-11-06 11:31:00
5:51 AM,39.2,37.4,93,29.78,7.0,SW,5.8,-,0.02,Rain,Light Rain,220,2012-11-06 11:51:00
6:11 AM,39.2,37.4,93,29.77,4.0,WSW,9.2,-,N/A,,Drizzle,240,2012-11-06 12:11:00
6:32 AM,39.2,37.4,93,29.77,2.5,WSW,6.9,-,N/A,,Light Drizzle,240,2012-11-06 12:32:00
6:51 AM,37.4,37.4,100,29.76,1.8,SW,4.6,-,N/A,,Light Drizzle,230,2012-11-06 12:51:00
7:11 AM,39.2,37.4,93,29.77,4.0,WSW,5.8,-,N/A,,Overcast,240,2012-11-06 13:11:00
7:32 AM,39.2,37.4,93,29.77,5.0,WSW,9.2,-,N/A,,Overcast,250,2012-11-06 13:32:00
7:51 AM,39.2,37.4,93,29.77,3.0,WSW,9.2,-,N/A,,Overcast,250,2012-11-06 13:51:00
8:11 AM,39.2,37.4,93,29.78,4.0,West,12.7,19.6,N/A,,Overcast,260,2012-11-06 14:11:00
8:32 AM,39.2,37.4,93,29.78,7.0,West,16.1,-,N/A,,Overcast,270,2012-11-06 14:32:00
8:52 AM,39.2,37.4,93,29.78,10.0,WNW,13.8,19.6,N/A,,Overcast,290,2012-11-06 14:52:00
9:11 AM,39.2,37.4,93,29.78,10.0,WNW,12.7,-,N/A,,Overcast,290,2012-11-06 15:11:00
9:31 AM,41.0,35.6,81,29.78,10.0,NW,16.1,-,N/A,,Overcast,310,2012-11-06 15:31:00
9:52 AM,39.2,35.6,87,29.79,10.0,WNW,15.0,-,N/A,,Overcast,290,2012-11-06 15:52:00
10:11 AM,39.2,37.4,93,29.79,10.0,WNW,16.1,-,N/A,,Overcast,290,2012-11-06 16:11:00
10:31 AM,39.2,35.6,87,29.79,10.0,WNW,18.4,25.3,N/A,,Overcast,290,2012-11-06 16:31:00
10:52 AM,39.2,33.8,81,29.80,10.0,WNW,15.0,24.2,N/A,,Overcast,290,2012-11-06 16:52:00
11:11 AM,41.0,35.6,81,29.80,10.0,NW,17.3,-,N/A,,Overcast,310,2012-11-06 17:11:00
11:31 AM,41.0,35.6,81,29.79,10.0,WNW,15.0,24.2,N/A,,Overcast,300,2012-11-06 17:31:00
11:52 AM,42.8,35.6,76,29.79,10.0,NW,17.3,21.9,N/A,,Mostly Cloudy,320,2012-11-06 17:52:00
12:11 PM,42.8,35.6,76,29.79,10.0,WNW,16.1,20.7,N/A,,Mostly Cloudy,300,2012-11-06 18:11:00
12:31 PM,42.8,35.6,76,29.79,10.0,NW,11.5,-,N/A,,Overcast,310,2012-11-06 18:31:00
12:52 PM,42.8,35.6,76,29.79,10.0,WNW,15.0,-,N/A,,Overcast,290,2012-11-06 18:52:00
1:11 PM,42.8,35.6,76,29.79,10.0,WNW,13.8,-,N/A,,Overcast,290,2012-11-06 19:11:00
1:31 PM,39.2,35.6,87,29.80,3.0,WNW,12.7,-,N/A,,Drizzle,290,2012-11-06 19:31:00
1:52 PM,39.2,37.4,93,29.80,10.0,West,10.4,-,N/A,,Overcast,280,2012-11-06 19:52:00
2:11 PM,39.2,37.4,93,29.80,10.0,WNW,9.2,-,N/A,,Overcast,290,2012-11-06 20:11:00
2:31 PM,39.2,35.6,87,29.80,10.0,WNW,10.4,-,N/A,,Drizzle,290,2012-11-06 20:31:00
2:52 PM,39.2,35.6,87,29.81,7.0,WNW,15.0,-,N/A,,Drizzle,300,2012-11-06 20:52:00
3:11 PM,39.2,37.4,93,29.82,7.0,WNW,10.4,-,N/A,Rain,Rain,290,2012-11-06 21:11:00
3:31 PM,39.2,37.4,93,29.82,7.0,WNW,8.1,-,N/A,,Drizzle,300,2012-11-06 21:31:00
3:52 PM,39.2,37.4,93,29.82,7.0,West,4.6,-,N/A,Rain,Light Rain,280,2012-11-06 21:52:00
4:11 PM,39.2,37.4,93,29.83,5.0,WNW,9.2,17.3,N/A,,Drizzle,290,2012-11-06 22:11:00
4:31 PM,39.2,35.6,87,29.82,7.0,NNW,20.7,26.5,0.01,Rain,Light Rain,330,2012-11-06 22:31:00
4:52 PM,37.4,35.6,93,29.84,10.0,NNW,12.7,16.1,0.03,,Overcast,330,2012-11-06 22:52:00
5:11 PM,37.4,35.6,93,29.85,3.0,NNW,13.8,23.0,0.01,Rain,Light Rain,330,2012-11-06 23:11:00
5:31 PM,37.4,35.6,93,29.85,10.0,NNW,11.5,-,0.01,,Drizzle,330,2012-11-06 23:31:00
5:51 PM,37.4,35.6,93,29.86,10.0,NW,9.2,-,0.01,,Overcast,310,2012-11-06 23:51:00
6:11 PM,37.4,35.6,93,29.86,10.0,NW,16.1,20.7,N/A,,Overcast,320,2012-11-07 00:11:00
6:32 PM,37.4,35.6,93,29.87,10.0,NW,13.8,19.6,N/A,,Overcast,310,2012-11-07 00:32:00
6:51 PM,37.4,33.8,87,29.88,10.0,NW,11.5,-,N/A,,Overcast,320,2012-11-07 00:51:00
7:11 PM,37.4,33.8,87,29.88,10.0,NW,11.5,-,N/A,,Overcast,310,2012-11-07 01:11:00
7:32 PM,37.4,33.8,87,29.89,10.0,NNW,11.5,-,N/A,,Overcast,330,2012-11-07 01:32:00
7:51 PM,37.4,33.8,87,29.89,10.0,NNW,16.1,-,N/A,,Overcast,330,2012-11-07 01:51:00
8:11 PM,37.4,32.0,81,29.90,10.0,NNW,13.8,-,N/A,,Overcast,330,2012-11-07 02:11:00
8:32 PM,37.4,32.0,81,29.90,10.0,NNW,12.7,18.4,N/A,,Overcast,330,2012-11-07 02:32:00
8:51 PM,37.4,32.0,81,29.91,10.0,NNW,13.8,-,N/A,,Overcast,330,2012-11-07 02:51:00
9:11 PM,37.4,32.0,81,29.91,10.0,NNW,15.0,-,N/A,,Overcast,330,2012-11-07 03:11:00
9:32 PM,37.4,32.0,81,29.92,10.0,NNW,11.5,-,N/A,,Overcast,330,2012-11-07 03:32:00
9:51 PM,37.4,32.0,81,29.93,10.0,NNW,10.4,-,N/A,,Overcast,330,2012-11-07 03:51:00
10:11 PM,37.4,32.0,81,29.93,10.0,NW,11.5,19.6,N/A,,Overcast,320,2012-11-07 04:11:00
10:32 PM,37.4,33.8,87,29.94,10.0,NNW,10.4,-,N/A,,Overcast,330,2012-11-07 04:32:00
10:51 PM,37.4,33.8,87,29.94,10.0,NNW,11.5,-,N/A,,Overcast,330,2012-11-07 04:51:00
11:11 PM,37.4,33.8,87,29.95,10.0,NNW,9.2,-,N/A,,Light Drizzle,330,2012-11-07 05:11:00
11:31 PM,37.4,33.8,87,29.96,10.0,NW,10.4,-,N/A,,Overcast,320,2012-11-07 05:31:00
11:51 PM,37.4,33.8,87,29.96,10.0,NNW,9.2,-,N/A,,Overcast,330,2012-11-07 05:51:00